createdAt,value
2022-08-30T00:01:30.285Z,100619.00
2022-08-30T00:03:58.743Z,100623.03
2022-08-30T00:06:28.503Z,100622.47
2022-08-30T00:08:56.706Z,100632.63
2022-08-30T00:11:27.475Z,100643.03
2022-08-30T00:13:56.806Z,100642.91
2022-08-30T00:16:24.679Z,100639.97
2022-08-30T00:18:52.049Z,100625.44
2022-08-30T00:21:19.486Z,100638.31
2022-08-30T00:23:46.490Z,100638.06
2022-08-30T00:26:13.881Z,100637.78
2022-08-30T00:28:41.344Z,100643.91
2022-08-30T00:31:08.778Z,100658.03
2022-08-30T00:33:35.902Z,100657.06
2022-08-30T00:36:04.042Z,100654.19
2022-08-30T00:38:31.466Z,100655.19
2022-08-30T00:41:00.374Z,100654.34
2022-08-30T00:43:30.786Z,100647.50
2022-08-30T00:46:00.406Z,100655.16
2022-08-30T00:48:27.481Z,100656.59
2022-08-30T00:51:00.664Z,100659.28
2022-08-30T00:53:35.733Z,100659.56
2022-08-30T00:56:05.373Z,100657.38
2022-08-30T00:58:38.498Z,100658.63
2022-08-30T01:01:07.819Z,100650.78
2022-08-30T01:03:36.928Z,100647.34
2022-08-30T01:06:05.379Z,100650.78
2022-08-30T01:08:32.652Z,100646.81
2022-08-30T01:11:00.683Z,100648.88
2022-08-30T01:13:28.338Z,100642.75
2022-08-30T01:15:56.421Z,100645.09
2022-08-30T01:18:24.474Z,100645.63
2022-08-30T01:21:19.432Z,100654.41
2022-08-30T01:23:50.415Z,100648.69
2022-08-30T01:26:19.072Z,100643.41
2022-08-30T01:28:55.177Z,100644.28
2022-08-30T01:31:22.825Z,100641.69
2022-08-30T01:33:51.195Z,100632.88
2022-08-30T01:36:20.143Z,100637.25
2022-08-30T01:38:56.972Z,100632.44
2022-08-30T01:41:32.363Z,100633.47
2022-08-30T01:44:02.918Z,100637.25
2022-08-30T01:46:36.198Z,100635.94
2022-08-30T01:49:06.946Z,100639.19
2022-08-30T01:51:35.131Z,100638.44
2022-08-30T01:54:02.334Z,100639.47
2022-08-30T01:56:30.152Z,100638.00
2022-08-30T01:59:02.683Z,100646.84
2022-08-30T02:01:32.562Z,100644.34
2022-08-30T02:04:00.456Z,100634.84
2022-08-30T02:06:28.096Z,100640.13
2022-08-30T02:08:55.121Z,100642.34
2022-08-30T02:11:30.644Z,100648.28
2022-08-30T02:13:59.023Z,100654.22
2022-08-30T02:16:28.882Z,100650.81
2022-08-30T02:18:57.363Z,100649.06
2022-08-30T02:21:25.892Z,100653.75
2022-08-30T02:23:55.243Z,100650.13
2022-08-30T02:26:27.241Z,100655.94
2022-08-30T02:28:57.084Z,100664.56
2022-08-30T02:31:26.629Z,100665.81
2022-08-30T02:33:58.271Z,100668.09
2022-08-30T02:36:29.687Z,100666.13
2022-08-30T02:38:57.066Z,100662.59
2022-08-30T02:41:24.655Z,100663.59
2022-08-30T02:43:52.772Z,100666.06
2022-08-30T02:46:20.083Z,100654.84
2022-08-30T02:48:47.290Z,100667.38
2022-08-30T02:51:15.138Z,100667.38
2022-08-30T02:53:44.019Z,100673.63
2022-08-30T02:56:13.606Z,100677.34
2022-08-30T02:58:45.145Z,100679.44
2022-08-30T03:01:21.251Z,100671.69
2022-08-30T03:03:51.605Z,100673.78
2022-08-30T03:06:18.929Z,100668.50
2022-08-30T03:08:46.029Z,100668.38
2022-08-30T03:11:18.581Z,100669.00
2022-08-30T03:13:46.189Z,100671.34
2022-08-30T03:16:16.518Z,100673.03
2022-08-30T03:18:57.086Z,100678.44
2022-08-30T03:21:28.558Z,100678.44
2022-08-30T03:23:57.056Z,100681.75
2022-08-30T03:26:24.836Z,100683.09
2022-08-30T03:28:54.047Z,100679.84
2022-08-30T03:31:29.652Z,100681.31
2022-08-30T03:34:02.949Z,100688.28
2022-08-30T03:36:30.560Z,100693.59
2022-08-30T03:38:58.539Z,100686.47
2022-08-30T03:41:26.088Z,100695.44
2022-08-30T03:43:59.880Z,100698.38
2022-08-30T03:46:28.790Z,100710.44
2022-08-30T03:48:57.326Z,100705.03
2022-08-30T03:51:25.835Z,100705.91
2022-08-30T03:53:54.797Z,100703.94
2022-08-30T03:56:22.274Z,100706.84
2022-08-30T03:58:49.605Z,100701.53
2022-08-30T04:01:19.140Z,100705.88
2022-08-30T04:03:47.483Z,100712.81
2022-08-30T04:06:20.136Z,100717.28
2022-08-30T04:09:03.960Z,100727.50
2022-08-30T04:11:32.360Z,100730.25
2022-08-30T04:14:02.803Z,100737.00
2022-08-30T04:16:29.948Z,100739.00
2022-08-30T04:22:15.420Z,100746.13
2022-08-30T04:25:15.887Z,100750.84
2022-08-30T04:30:46.581Z,100754.38
2022-08-30T04:33:45.618Z,100750.91
2022-08-30T04:36:14.020Z,100759.94
2022-08-30T04:38:50.644Z,100765.22
2022-08-30T04:41:24.076Z,100766.53
2022-08-30T04:43:51.549Z,100763.31
2022-08-30T04:46:19.432Z,100775.97
2022-08-30T04:54:40.874Z,100759.22
2022-08-30T04:57:09.375Z,100760.31
2022-08-30T04:59:43.168Z,100763.44
2022-08-30T05:02:13.216Z,100763.25
2022-08-30T05:05:06.202Z,100770.72
2022-08-30T05:07:34.546Z,100761.47
2022-08-30T05:10:01.672Z,100762.53
2022-08-30T05:12:28.756Z,100762.09
2022-08-30T05:14:58.508Z,100767.94
2022-08-30T05:17:25.667Z,100774.09
2022-08-30T05:19:52.791Z,100776.81
2022-08-30T05:22:20.423Z,100777.53
2022-08-30T05:24:47.510Z,100793.53
2022-08-30T05:27:14.681Z,100803.97
2022-08-30T05:29:42.011Z,100802.81
2022-08-30T05:32:11.045Z,100809.13
2022-08-30T05:34:38.534Z,100817.13
2022-08-30T05:37:05.865Z,100819.00
2022-08-30T05:39:50.859Z,100815.13
2022-08-30T05:42:19.918Z,100807.69
2022-08-30T05:44:52.195Z,100805.97
2022-08-30T05:47:20.355Z,100808.88
2022-08-30T05:49:48.923Z,100831.69
2022-08-30T05:52:18.245Z,100840.84
2022-08-30T05:54:46.663Z,100847.41
2022-08-30T05:57:14.546Z,100842.56
2022-08-30T05:59:41.687Z,100832.13
2022-08-30T06:02:10.418Z,100824.00
2022-08-30T06:04:54.413Z,100804.84
2022-08-30T06:07:37.274Z,100806.56
2022-08-30T06:10:07.035Z,100806.69
2022-08-30T06:15:20.299Z,100774.53
2022-08-30T06:17:48.507Z,100759.81
2022-08-30T06:20:22.667Z,100756.06
2022-08-30T06:22:59.109Z,100749.75
2022-08-30T06:25:27.695Z,100745.44
2022-08-30T06:28:09.792Z,100742.66
2022-08-30T06:30:37.370Z,100741.94
2022-08-30T06:33:05.760Z,100749.81
2022-08-30T06:35:38.242Z,100756.16
2022-08-30T06:38:14.312Z,100760.47
2022-08-30T06:40:41.852Z,100768.06
2022-08-30T06:43:12.110Z,100772.25
2022-08-30T06:45:39.397Z,100779.66
2022-08-30T06:48:08.982Z,100792.28
2022-08-30T06:50:39.622Z,100790.72
2022-08-30T06:56:22.240Z,100768.53
2022-08-30T06:58:50.240Z,100777.25
2022-08-30T07:04:05.189Z,100781.25
2022-08-30T07:06:33.267Z,100785.84
2022-08-30T07:09:00.464Z,100783.84
2022-08-30T07:11:40.546Z,100792.28
2022-08-30T07:14:09.110Z,100796.53
2022-08-30T07:16:36.596Z,100801.84
2022-08-30T07:19:05.407Z,100805.13
2022-08-30T07:21:42.650Z,100808.84
2022-08-30T07:24:11.626Z,100805.72
2022-08-30T07:26:47.449Z,100812.56
2022-08-30T07:29:16.030Z,100815.84
2022-08-30T07:34:27.513Z,100813.97
2022-08-30T07:36:58.256Z,100818.59
2022-08-30T07:39:25.523Z,100822.97
2022-08-30T07:41:52.557Z,100831.41
2022-08-30T07:44:22.827Z,100833.81
2022-08-30T07:47:00.122Z,100828.34
2022-08-30T07:49:39.832Z,100839.00
2022-08-30T07:52:08.044Z,100832.94
2022-08-30T07:54:41.246Z,100824.59
2022-08-30T07:59:51.671Z,100832.84
2022-08-30T08:02:20.867Z,100844.50
2022-08-30T08:04:58.072Z,100844.97
2022-08-30T08:07:50.830Z,100844.56
2022-08-30T08:11:16.235Z,100846.81
2022-08-30T08:14:04.349Z,100844.22
2022-08-30T08:26:36.200Z,100843.81
2022-08-30T08:29:12.123Z,100835.47
2022-08-30T08:31:47.062Z,100835.75
2022-08-30T08:34:14.667Z,100836.50
2022-08-30T08:36:41.786Z,100832.25
2022-08-30T08:39:09.892Z,100830.47
2022-08-30T08:41:45.686Z,100831.53
2022-08-30T08:44:32.462Z,100828.22
2022-08-30T08:47:20.263Z,100831.91
2022-08-30T08:49:52.040Z,100826.75
2022-08-30T08:52:55.907Z,100823.13
2022-08-30T08:55:24.810Z,100825.38
2022-08-30T08:57:52.854Z,100838.38
2022-08-30T09:00:20.187Z,100831.50
2022-08-30T09:03:00.144Z,100843.25
2022-08-30T09:05:35.526Z,100839.41
2022-08-30T09:08:11.521Z,100844.00
2022-08-30T09:10:50.366Z,100841.38
2022-08-30T09:13:22.804Z,100839.28
2022-08-30T09:15:54.861Z,100841.19
2022-08-30T09:18:47.463Z,100833.00
2022-08-30T09:21:24.882Z,100838.09
2022-08-30T09:23:59.311Z,100842.09
2022-08-30T09:26:33.226Z,100841.22
2022-08-30T09:29:01.223Z,100834.81
2022-08-30T09:31:33.748Z,100833.22
2022-08-30T09:34:07.464Z,100837.19
2022-08-30T09:36:45.703Z,100835.84
2022-08-30T09:39:18.793Z,100824.81
2022-08-30T09:41:50.533Z,100823.97
2022-08-30T09:44:31.673Z,100822.06
2022-08-30T09:47:01.568Z,100811.25
2022-08-30T09:49:30.825Z,100816.59
2022-08-30T09:52:25.903Z,100816.00
2022-08-30T09:55:09.818Z,100811.84
2022-08-30T09:57:43.803Z,100821.41
2022-08-30T10:00:22.073Z,100816.28
2022-08-30T10:03:35.225Z,100818.22
2022-08-30T10:09:23.270Z,100817.72
2022-08-30T10:12:00.824Z,100812.25
2022-08-30T10:14:40.387Z,100812.88
2022-08-30T10:17:51.675Z,100808.03
2022-08-30T10:20:32.585Z,100804.22
2022-08-30T10:23:16.122Z,100799.25
2022-08-30T10:25:52.547Z,100803.59
2022-08-30T10:28:52.467Z,100808.47
2022-08-30T10:31:42.226Z,100796.97
2022-08-30T10:34:24.679Z,100795.47
2022-08-30T10:37:02.154Z,100791.44
2022-08-30T10:39:39.414Z,100792.22
2022-08-30T10:42:18.721Z,100791.38
2022-08-30T10:44:52.673Z,100784.31
2022-08-30T10:47:54.428Z,100784.69
2022-08-30T10:51:07.078Z,100771.63
2022-08-30T10:53:45.005Z,100765.84
2022-08-30T10:56:32.667Z,100764.59
2022-08-30T10:59:00.665Z,100768.06
2022-08-30T11:01:46.448Z,100764.31
2022-08-30T11:04:47.954Z,100762.69
2022-08-30T11:07:40.509Z,100765.97
2022-08-30T11:11:03.617Z,100750.91
2022-08-30T11:17:01.208Z,100740.47
2022-08-30T11:19:39.234Z,100739.53
2022-08-30T11:22:16.009Z,100736.03
2022-08-30T11:25:10.149Z,100732.22
2022-08-30T11:27:59.069Z,100729.88
2022-08-30T11:30:27.090Z,100724.00
2022-08-30T11:33:37.839Z,100714.09
2022-08-30T11:36:38.193Z,100715.22
2022-08-30T11:39:51.570Z,100703.03
2022-08-30T11:42:33.352Z,100699.31
2022-08-30T11:45:25.181Z,100694.16
2022-08-30T11:48:09.589Z,100696.06
2022-08-30T11:50:59.606Z,100685.91
2022-08-30T11:53:58.597Z,100681.34
2022-08-30T11:56:47.275Z,100688.72
2022-08-30T11:59:26.091Z,100679.19
2022-08-30T12:01:54.798Z,100673.81
2022-08-30T12:04:28.697Z,100679.09
2022-08-30T12:07:04.451Z,100670.88
2022-08-30T12:09:34.670Z,100667.75
2022-08-30T12:12:08.104Z,100659.72
2022-08-30T12:14:54.913Z,100658.47
2022-08-30T12:18:04.035Z,100642.31
2022-08-30T12:20:42.862Z,100643.63
2022-08-30T12:23:35.204Z,100644.16
2022-08-30T12:26:11.252Z,100648.13
2022-08-30T12:28:38.773Z,100642.72
2022-08-30T12:31:21.000Z,100644.81
2022-08-30T12:33:54.312Z,100640.94
2022-08-30T12:36:35.832Z,100638.13
2022-08-30T12:39:09.154Z,100638.13
2022-08-30T12:41:36.936Z,100637.00
2022-08-30T12:44:18.970Z,100633.75
2022-08-30T12:46:58.852Z,100625.41
2022-08-30T12:49:36.825Z,100625.47
2022-08-30T12:52:24.505Z,100629.41
2022-08-30T12:55:27.927Z,100629.59
2022-08-30T12:58:09.741Z,100615.16
2022-08-30T13:00:40.920Z,100615.34
2022-08-30T13:03:30.294Z,100610.25
2022-08-30T13:08:46.139Z,100616.59
2022-08-30T13:11:29.679Z,100614.38
2022-08-30T13:14:35.938Z,100599.16
2022-08-30T13:17:21.602Z,100599.59
2022-08-30T13:20:24.452Z,100588.88
2022-08-30T13:23:09.591Z,100586.34
2022-08-30T13:25:39.155Z,100576.97
2022-08-30T13:28:09.213Z,100572.03
2022-08-30T13:30:38.690Z,100565.56
2022-08-30T13:33:05.935Z,100564.25
2022-08-30T13:35:34.025Z,100570.16
2022-08-30T13:38:04.185Z,100567.66
2022-08-30T13:40:34.321Z,100555.16
2022-08-30T13:43:07.006Z,100561.94
2022-08-30T13:45:42.956Z,100563.06
2022-08-30T13:48:13.632Z,100564.75
2022-08-30T13:50:40.713Z,100563.25
2022-08-30T13:53:09.820Z,100560.50
2022-08-30T13:55:40.831Z,100559.66
2022-08-30T13:58:08.538Z,100561.94
2022-08-30T14:00:38.638Z,100557.50
2022-08-30T14:03:06.375Z,100559.59
2022-08-30T14:05:49.213Z,100551.09
2022-08-30T14:08:48.778Z,100551.38
2022-08-30T14:11:22.330Z,100552.69
2022-08-30T14:16:44.534Z,100543.84
2022-08-30T14:19:14.286Z,100551.66
2022-08-30T14:21:50.925Z,100538.31
2022-08-30T14:24:21.579Z,100536.16
2022-08-30T14:26:53.810Z,100534.91
2022-08-30T14:32:13.269Z,100531.97
2022-08-30T14:34:45.551Z,100529.81
2022-08-30T14:37:18.375Z,100523.69
2022-08-30T14:39:48.004Z,100517.34
2022-08-30T14:42:18.875Z,100504.88
2022-08-30T14:44:56.143Z,100511.59
2022-08-30T14:47:29.512Z,100506.00
2022-08-30T14:50:00.823Z,100506.00
2022-08-30T14:52:29.592Z,100505.34
2022-08-30T14:55:08.557Z,100505.34
2022-08-30T14:57:38.546Z,100494.50
2022-08-30T15:00:09.817Z,100498.53
2022-08-30T15:02:36.995Z,100492.44
2022-08-30T15:05:08.373Z,100504.91
2022-08-30T15:07:49.179Z,100495.00
2022-08-30T15:10:20.819Z,100505.59
2022-08-30T15:12:48.688Z,100503.78
2022-08-30T15:15:54.776Z,100507.94
2022-08-30T15:18:29.821Z,100509.84
2022-08-30T15:20:57.027Z,100512.41
2022-08-30T15:23:24.991Z,100519.31
2022-08-30T15:25:52.915Z,100521.75
2022-08-30T15:28:20.086Z,100518.91
2022-08-30T15:30:59.015Z,100519.06
2022-08-30T15:33:26.147Z,100521.00
2022-08-30T15:35:59.084Z,100527.63
2022-08-30T15:38:29.545Z,100526.84
2022-08-30T15:41:05.766Z,100528.63
2022-08-30T15:43:34.778Z,100531.06
2022-08-30T15:46:15.409Z,100510.72
2022-08-30T15:48:45.630Z,100506.91
2022-08-30T15:51:20.262Z,100498.34
2022-08-30T15:53:49.938Z,100505.22
2022-08-30T15:56:20.304Z,100493.31
2022-08-30T15:58:48.408Z,100502.94
2022-08-30T16:01:16.671Z,100513.78
2022-08-30T16:03:48.325Z,100513.97
2022-08-30T16:06:19.484Z,100510.81
2022-08-30T16:08:58.228Z,100525.28
2022-08-30T16:11:28.247Z,100541.03
2022-08-30T16:13:57.313Z,100551.00
2022-08-30T16:16:25.174Z,100552.56
2022-08-30T16:18:55.232Z,100560.66
2022-08-30T16:21:26.559Z,100553.84
2022-08-30T16:23:59.978Z,100552.50
2022-08-30T16:26:30.874Z,100555.94
2022-08-30T16:29:01.413Z,100563.47
2022-08-30T16:31:30.639Z,100560.25
2022-08-30T16:34:02.414Z,100567.59
2022-08-30T16:36:33.176Z,100579.56
2022-08-30T16:39:01.070Z,100594.75
2022-08-30T16:41:28.663Z,100605.84
2022-08-30T16:43:57.743Z,100610.28
2022-08-30T16:46:27.812Z,100608.59
2022-08-30T16:48:58.251Z,100605.34
2022-08-30T16:51:29.800Z,100613.84
2022-08-30T16:56:50.854Z,100610.72
2022-08-30T16:59:18.974Z,100631.00
2022-08-30T17:01:49.546Z,100641.81
2022-08-30T17:04:21.350Z,100634.94
2022-08-30T17:06:51.512Z,100623.03
2022-08-30T17:09:20.764Z,100624.94
2022-08-30T17:11:49.657Z,100646.63
2022-08-30T17:14:21.508Z,100655.59
2022-08-30T17:16:50.940Z,100675.63
2022-08-30T17:19:37.933Z,100675.28
2022-08-30T17:22:10.120Z,100712.03
2022-08-30T17:24:39.125Z,100693.72
2022-08-30T17:27:08.309Z,100713.63
2022-08-30T17:29:35.939Z,100710.44
2022-08-30T17:32:03.270Z,100691.03
2022-08-30T17:34:31.822Z,100706.06
2022-08-30T17:37:00.219Z,100705.41
2022-08-30T17:39:29.070Z,100702.06
2022-08-30T17:41:56.454Z,100737.50
2022-08-30T17:44:29.673Z,100747.41
2022-08-30T17:46:59.572Z,100755.16
2022-08-30T17:49:28.226Z,100763.88
2022-08-30T17:51:57.114Z,100765.19
2022-08-30T17:54:26.717Z,100765.41
2022-08-30T17:56:54.631Z,100768.47
2022-08-30T17:59:24.887Z,100763.78
2022-08-30T18:01:55.330Z,100788.50
2022-08-30T18:04:24.928Z,100791.91
2022-08-30T18:06:55.814Z,100794.34
2022-08-30T18:09:24.069Z,100793.44
2022-08-30T18:11:51.541Z,100788.69
2022-08-30T18:14:18.933Z,100780.72
2022-08-30T18:16:53.068Z,100779.00
2022-08-30T18:19:28.850Z,100776.44
2022-08-30T18:21:56.482Z,100788.31
2022-08-30T18:24:27.564Z,100783.75
2022-08-30T18:26:56.310Z,100782.81
2022-08-30T18:29:30.395Z,100780.41
2022-08-30T18:32:03.567Z,100797.50
2022-08-30T18:34:31.658Z,100789.47
2022-08-30T18:36:58.749Z,100769.97
2022-08-30T18:39:26.371Z,100761.53
2022-08-30T18:41:54.680Z,100757.66
2022-08-30T18:44:28.699Z,100755.25
2022-08-30T18:46:58.319Z,100762.13
2022-08-30T18:49:32.391Z,100766.66
2022-08-30T18:52:01.368Z,100780.03
2022-08-30T18:54:30.034Z,100799.44
2022-08-30T18:56:57.183Z,100810.31
2022-08-30T18:59:35.283Z,100816.03
2022-08-30T19:02:11.441Z,100825.34
2022-08-30T19:04:46.197Z,100820.81
2022-08-30T19:07:15.315Z,100807.47
2022-08-30T19:09:47.261Z,100801.22
2022-08-30T19:12:14.677Z,100795.19
2022-08-30T19:14:44.430Z,100794.19
2022-08-30T19:17:12.061Z,100797.03
2022-08-30T19:19:45.172Z,100791.63
2022-08-30T19:22:19.290Z,100803.16
2022-08-30T19:24:48.046Z,100796.03
2022-08-30T19:27:21.538Z,100795.06
2022-08-30T19:30:21.677Z,100778.16
2022-08-30T19:32:52.964Z,100776.44
2022-08-30T19:35:20.637Z,100779.22
2022-08-30T19:37:51.423Z,100772.78
2022-08-30T19:40:20.810Z,100769.63
2022-08-30T19:42:49.402Z,100774.66
2022-08-30T19:45:18.170Z,100777.13
2022-08-30T19:47:48.698Z,100768.03
2022-08-30T19:50:17.331Z,100771.59
2022-08-30T19:52:50.992Z,100774.28
2022-08-30T19:55:28.474Z,100774.44
2022-08-30T19:57:57.700Z,100760.31
2022-08-30T20:00:27.084Z,100756.88
2022-08-30T20:02:58.543Z,100751.69
2022-08-30T20:05:26.877Z,100738.22
2022-08-30T20:07:55.138Z,100745.22
2022-08-30T20:10:26.154Z,100739.72
2022-08-30T20:12:55.965Z,100734.22
2022-08-30T20:15:23.248Z,100730.41
2022-08-30T20:20:38.470Z,100714.22
2022-08-30T20:23:06.038Z,100692.44
2022-08-30T20:25:34.768Z,100687.41
2022-08-30T20:28:03.910Z,100697.44
2022-08-30T20:30:31.742Z,100694.88
2022-08-30T20:33:02.601Z,100703.72
2022-08-30T20:35:32.275Z,100691.56
2022-08-30T20:38:06.420Z,100688.00
2022-08-30T20:40:36.200Z,100693.50
2022-08-30T20:43:03.683Z,100685.53
2022-08-30T20:45:33.132Z,100681.13
2022-08-30T20:48:06.125Z,100684.78
2022-08-30T20:50:33.868Z,100680.13
2022-08-30T20:53:01.215Z,100682.84
2022-08-30T20:55:28.345Z,100677.44
2022-08-30T20:57:55.381Z,100667.41
2022-08-30T21:00:23.202Z,100675.28
2022-08-30T21:02:50.564Z,100676.97
2022-08-30T21:05:18.024Z,100675.28
2022-08-30T21:07:46.382Z,100680.50
2022-08-30T21:10:22.608Z,100692.94
2022-08-30T21:12:53.362Z,100696.59
2022-08-30T21:15:36.851Z,100697.69
2022-08-30T21:18:06.045Z,100698.53
2022-08-30T21:20:33.208Z,100700.28
2022-08-30T21:23:00.381Z,100701.13
2022-08-30T21:25:27.616Z,100710.06
2022-08-30T21:27:55.009Z,100705.53
2022-08-30T21:30:22.271Z,100697.56
2022-08-30T21:32:50.216Z,100699.28
2022-08-30T21:35:38.090Z,100702.97
2022-08-30T21:38:08.993Z,100695.72
2022-08-30T21:40:36.946Z,100701.22
2022-08-30T21:43:06.003Z,100696.84
2022-08-30T21:45:45.207Z,100697.78
2022-08-30T21:48:13.777Z,100701.34
2022-08-30T21:50:43.229Z,100690.69
2022-08-30T21:53:10.674Z,100693.63
2022-08-30T21:55:37.966Z,100694.94
2022-08-30T21:58:05.992Z,100692.38
2022-08-30T22:00:35.241Z,100686.19
2022-08-30T22:03:02.372Z,100685.44
2022-08-30T22:05:29.995Z,100680.19
2022-08-30T22:07:57.117Z,100677.50
2022-08-30T22:10:24.227Z,100670.38
2022-08-30T22:12:51.521Z,100677.72
2022-08-30T22:15:18.585Z,100672.44
2022-08-30T22:17:45.827Z,100678.81
2022-08-30T22:20:16.199Z,100680.53
2022-08-30T22:22:46.029Z,100675.28
2022-08-30T22:25:13.790Z,100668.03
2022-08-30T22:27:40.865Z,100666.19
2022-08-30T22:30:08.300Z,100662.41
2022-08-30T22:32:38.300Z,100664.13
2022-08-30T22:35:06.051Z,100647.72
2022-08-30T22:37:34.228Z,100644.91
2022-08-30T22:40:01.744Z,100643.06
2022-08-30T22:42:29.146Z,100648.59
2022-08-30T22:44:56.186Z,100643.44
2022-08-30T22:47:23.563Z,100640.84
2022-08-30T22:49:50.525Z,100650.88
2022-08-30T22:52:17.728Z,100645.84
2022-08-30T22:54:52.144Z,100650.63
2022-08-30T22:57:19.978Z,100649.13
2022-08-30T22:59:46.962Z,100649.38
2022-08-30T23:02:14.483Z,100650.59
2022-08-30T23:04:41.579Z,100654.50
2022-08-30T23:07:08.595Z,100656.53
2022-08-30T23:09:36.257Z,100651.47
2022-08-30T23:12:03.687Z,100660.66
2022-08-30T23:14:30.841Z,100654.63
2022-08-30T23:16:58.209Z,100659.41
2022-08-30T23:19:26.807Z,100659.63
2022-08-30T23:21:53.993Z,100659.75
2022-08-30T23:24:40.000Z,100660.19
2022-08-30T23:27:26.088Z,100662.50
2022-08-30T23:30:11.772Z,100660.16
2022-08-30T23:32:57.455Z,100656.81
2022-08-30T23:35:43.242Z,100658.88
2022-08-30T23:38:28.758Z,100669.84
2022-08-30T23:41:15.142Z,100667.28
2022-08-30T23:44:00.713Z,100665.78
2022-08-30T23:46:46.743Z,100671.03
2022-08-30T23:49:32.291Z,100668.34
2022-08-30T23:52:18.247Z,100674.47
2022-08-30T23:55:12.482Z,100666.94
2022-08-30T23:58:03.764Z,100667.69
